Time;durP1;ratioP1;P1;durP2;ratioP2;P2;SDS_P1;SDS_P2;PMS_P1;PMS_P2;Temp;Humidity;BMP_temperature;BMP_pressure;BME280_temperature;BME280_humidity;BME280_pressure;Samples;Min_cycle;Max_cycle;Signal;HPM_P1;HPM_P2
2023/01/13 00:01:15;;;;;;;22.63;3.07;;;;;;;7.06;100.00;100293.88;5059053;28;20178;-84
2023/01/13 00:03:41;;;;;;;16.35;1.60;;;;;;;7.02;100.00;100306.94;5076529;28;20401;-84
2023/01/13 00:06:08;;;;;;;27.90;2.30;;;;;;;7.02;100.00;100306.13;5093630;28;20040;-84
2023/01/13 00:08:34;;;;;;;25.02;2.63;;;;;;;7.00;100.00;100300.94;5093609;28;20047;-84
2023/01/13 00:11:00;;;;;;;23.52;2.08;;;;;;;7.00;100.00;100303.63;5075451;28;20456;-84
2023/01/13 00:13:25;;;;;;;18.00;1.73;;;;;;;7.03;100.00;100311.31;5075850;28;20042;-84
2023/01/13 00:16:05;;;;;;;29.77;2.00;;;;;;;6.96;100.00;100313.16;5042402;28;20028;-84
2023/01/13 00:18:32;;;;;;;33.28;2.80;;;;;;;6.96;100.00;100301.56;5075644;28;20028;-84
2023/01/13 00:21:07;;;;;;;23.00;1.75;;;;;;;6.85;100.00;100301.13;5075556;28;20032;-84
2023/01/13 00:23:34;;;;;;;28.27;2.20;;;;;;;6.82;100.00;100290.75;5075971;28;20028;-84
2023/01/13 00:26:04;;;;;;;16.60;1.65;;;;;;;6.78;100.00;100292.19;5058683;28;20028;-84
2023/01/13 00:28:30;;;;;;;22.33;2.40;;;;;;;6.74;100.00;100276.63;5075607;28;20061;-85
2023/01/13 00:31:06;;;;;;;30.73;2.63;;;;;;;6.73;100.00;100285.72;5075584;28;20069;-84
2023/01/13 00:33:31;;;;;;;26.02;1.60;;;;;;;6.74;100.00;100279.31;5059258;28;20028;-85
2023/01/13 00:35:59;;;;;;;30.60;2.50;;;;;;;6.72;100.00;100278.66;5058883;28;20034;-84
2023/01/13 00:38:25;;;;;;;25.73;1.80;;;;;;;6.70;100.00;100267.28;5075360;28;20028;-85
2023/01/13 00:40:58;;;;;;;18.52;1.65;;;;;;;6.67;100.00;100269.34;5074789;28;20047;-84
2023/01/13 00:43:25;;;;;;;26.42;2.10;;;;;;;6.58;100.00;100259.78;5080596;28;20062;-84
2023/01/13 00:45:51;;;;;;;24.23;2.40;;;;;;;6.59;100.00;100261.44;5096123;28;20106;-85
2023/01/13 00:48:18;;;;;;;24.80;2.40;;;;;;;6.61;100.00;100263.94;5078610;28;20055;-84
2023/01/13 00:50:47;;;;;;;25.55;2.13;;;;;;;6.58;100.00;100257.06;5113483;28;20102;-85
2023/01/13 00:53:13;;;;;;;27.35;2.08;;;;;;;6.53;100.00;100245.25;5095145;28;20028;-85
2023/01/13 00:55:39;;;;;;;26.15;2.22;;;;;;;6.60;100.00;100252.31;5062298;28;20028;-84
2023/01/13 00:58:04;;;;;;;31.87;2.03;;;;;;;6.55;100.00;100249.41;5095668;28;20121;-85
2023/01/13 01:00:33;;;;;;;29.97;2.10;;;;;;;6.54;100.00;100260.38;5078283;28;20034;-85
2023/01/13 01:02:59;;;;;;;29.63;2.33;;;;;;;6.52;100.00;100257.06;5113693;28;20472;-85
2023/01/13 01:05:24;;;;;;;23.13;2.85;;;;;;;6.54;100.00;100263.06;5113697;28;20027;-85
2023/01/13 01:07:50;;;;;;;25.00;1.97;;;;;;;6.54;100.00;100265.78;5096270;28;20110;-84
2023/01/13 01:10:16;;;;;;;27.87;2.43;;;;;;;6.49;100.00;100264.50;5095765;28;20407;-85
2023/01/13 01:12:41;;;;;;;24.75;2.10;;;;;;;6.53;100.00;100272.22;5095021;28;20440;-85
2023/01/13 01:15:08;;;;;;;22.70;2.83;;;;;;;6.62;100.00;100274.50;5096199;28;20035;-85
2023/01/13 01:17:34;;;;;;;24.50;1.80;;;;;;;6.70;100.00;100270.78;5095266;28;20585;-85
2023/01/13 01:20:00;;;;;;;28.10;3.20;;;;;;;6.74;100.00;100269.34;5099034;28;20032;-85
2023/01/13 01:22:25;;;;;;;24.87;2.40;;;;;;;6.80;100.00;100275.78;5099211;28;20085;-85
2023/01/13 01:24:51;;;;;;;30.33;2.40;;;;;;;6.76;100.00;100263.75;5116909;28;20027;-85
2023/01/13 01:27:16;;;;;;;36.53;3.37;;;;;;;6.78;100.00;100254.44;5082354;28;20078;-85
2023/01/13 01:29:44;;;;;;;27.08;2.17;;;;;;;6.79;100.00;100258.78;5065690;28;20032;-85
2023/01/13 01:32:10;;;;;;;21.47;1.77;;;;;;;6.82;100.00;100258.38;5116902;28;20043;-85
2023/01/13 01:34:35;;;;;;;33.65;2.65;;;;;;;6.80;100.00;100286.59;5098259;28;20035;-84
2023/01/13 01:37:00;;;;;;;29.37;2.27;;;;;;;6.74;100.00;100257.75;5099237;28;20030;-84
2023/01/13 01:39:26;;;;;;;20.37;2.07;;;;;;;6.66;100.00;100270.38;5098807;28;20086;-84
2023/01/13 01:44:41;;;;;;;27.58;2.03;;;;;;;6.60;100.00;100294.59;5116631;28;20441;-85
2023/01/13 01:47:15;;;;;;;27.27;2.63;;;;;;;6.55;100.00;100270.13;5098510;28;20528;-85
2023/01/13 01:49:41;;;;;;;28.23;2.28;;;;;;;6.53;100.00;100266.81;5098899;28;20088;-85
2023/01/13 01:52:25;;;;;;;35.97;2.50;;;;;;;6.52;100.00;100268.69;5116775;28;20059;-84
2023/01/13 01:54:59;;;;;;;34.10;3.55;;;;;;;6.48;100.00;100264.72;5099318;28;20019;-85
2023/01/13 01:58:00;;;;;;;39.08;3.13;;;;;;;6.53;100.00;100283.00;5098657;28;20559;-84
2023/01/13 02:00:29;;;;;;;24.38;2.65;;;;;;;6.48;100.00;100270.97;5071729;28;20152;-85
2023/01/13 02:02:54;;;;;;;26.73;3.15;;;;;;;6.49;100.00;100271.78;5098258;28;20032;-85
2023/01/13 02:05:20;;;;;;;30.80;3.50;;;;;;;6.48;100.00;100257.47;5081978;28;20034;-85
2023/01/13 02:07:48;;;;;;;26.17;3.72;;;;;;;6.44;100.00;100258.91;5081333;28;20081;-85
2023/01/13 02:10:19;;;;;;;39.55;3.40;;;;;;;6.37;100.00;100262.63;5097772;28;20059;-85
2023/01/13 02:12:47;;;;;;;29.80;2.60;;;;;;;6.37;100.00;100270.72;5116108;28;20057;-84
2023/01/13 02:15:15;;;;;;;25.35;2.83;;;;;;;6.34;100.00;100257.66;5116011;28;20035;-84
2023/01/13 02:18:28;;;;;;;35.35;3.20;;;;;;;6.40;100.00;100263.03;5115955;28;20106;-85
2023/01/13 02:21:24;;;;;;;27.65;2.92;;;;;;;6.37;100.00;100278.78;5011434;28;20033;-84
2023/01/13 02:27:10;;;;;;;41.57;3.20;;;;;;;6.32;100.00;100279.41;5112578;28;20089;-84
2023/01/13 02:32:48;;;;;;;46.25;4.18;;;;;;;6.19;100.00;100269.41;5115705;28;20383;-84
2023/01/13 02:35:39;;;;;;;26.77;3.92;;;;;;;6.38;100.00;100275.03;5116227;28;20034;-85
2023/01/13 02:38:06;;;;;;;20.75;3.03;;;;;;;6.37;100.00;100287.69;5097901;28;20031;-84
2023/01/13 02:40:37;;;;;;;25.40;3.00;;;;;;;6.40;100.00;100259.53;5097577;28;20107;-85
2023/01/13 02:46:29;;;;;;;23.38;2.35;;;;;;;6.46;100.00;100251.44;5115525;28;20066;-85
2023/01/13 02:49:00;;;;;;;26.17;3.38;;;;;;;6.52;100.00;100247.09;5097429;28;20035;-85
2023/01/13 02:51:29;;;;;;;17.35;2.53;;;;;;;6.64;100.00;100239.25;5097889;28;20080;-84
2023/01/13 02:54:10;;;;;;;23.33;3.10;;;;;;;6.61;100.00;100258.53;5097731;28;20027;-85
2023/01/13 02:56:40;;;;;;;26.90;2.40;;;;;;;6.54;100.00;100250.44;5096709;28;20384;-84
2023/01/13 02:59:08;;;;;;;23.35;3.17;;;;;;;6.60;100.00;100243.38;5115453;28;20027;-84
2023/01/13 03:01:33;;;;;;;23.88;3.13;;;;;;;6.62;100.00;100246.72;5115396;28;20039;-84
2023/01/13 03:04:09;;;;;;;32.53;3.63;;;;;;;6.68;100.00;100227.03;5080487;28;20038;-84
2023/01/13 03:06:51;;;;;;;17.65;2.03;;;;;;;6.68;100.00;100227.03;5098717;28;20043;-84
2023/01/13 03:09:38;;;;;;;19.98;2.22;;;;;;;6.77;100.00;100219.59;5096716;28;20115;-84
2023/01/13 03:12:25;;;;;;;21.50;2.45;;;;;;;6.82;100.00;100236.81;5097282;28;20043;-84
2023/01/13 03:15:27;;;;;;;23.10;2.20;;;;;;;6.93;100.00;100232.66;5097097;28;20030;-85
2023/01/13 03:18:13;;;;;;;24.60;3.38;;;;;;;6.94;100.00;100233.47;5115632;28;20525;-84
2023/01/13 03:20:49;;;;;;;19.05;2.88;;;;;;;6.96;100.00;100226.03;5097449;28;20359;-84
2023/01/13 03:23:21;;;;;;;20.38;2.50;;;;;;;7.01;100.00;100231.63;5089668;28;20036;-84
2023/01/13 03:25:59;;;;;;;17.52;2.42;;;;;;;7.05;100.00;100224.78;5114934;28;20031;-84
2023/01/13 03:28:35;;;;;;;21.33;2.38;;;;;;;7.10;100.00;100241.19;5096857;28;20108;-84
2023/01/13 03:31:07;;;;;;;15.18;2.30;;;;;;;7.29;100.00;100217.94;5096748;28;20110;-85
2023/01/13 03:33:45;;;;;;;20.45;2.00;;;;;;;7.26;100.00;100231.81;5096369;28;20020;-84
2023/01/13 03:36:16;;;;;;;12.70;1.85;;;;;;;7.22;100.00;100214.41;5096890;28;20027;-85
2023/01/13 03:38:56;;;;;;;14.70;1.40;;;;;;;7.34;100.00;100241.59;5097061;28;20076;-85
2023/01/13 03:41:28;;;;;;;9.40;1.70;;;;;;;7.46;100.00;100206.72;5096604;28;20034;-84
2023/01/13 03:44:22;;;;;;;12.27;1.15;;;;;;;7.46;100.00;100194.03;5096154;28;20431;-85
2023/01/13 03:47:06;;;;;;;4.95;0.85;;;;;;;7.47;100.00;100225.38;5096071;28;20061;-84
2023/01/13 03:49:58;;;;;;;2.92;0.70;;;;;;;7.48;100.00;100235.13;5096230;28;20028;-84
2023/01/13 03:52:40;;;;;;;3.60;0.47;;;;;;;7.50;100.00;100213.31;5096583;28;20031;-85
2023/01/13 03:55:13;;;;;;;4.95;0.60;;;;;;;7.50;100.00;100206.06;5095842;28;20033;-85
2023/01/13 03:57:48;;;;;;;3.17;0.60;;;;;;;7.42;100.00;100206.28;5097008;28;20039;-85
2023/01/13 04:00:14;;;;;;;6.63;0.60;;;;;;;7.34;100.00;100206.50;5096366;28;20032;-86
2023/01/13 04:02:56;;;;;;;4.47;1.35;;;;;;;7.28;100.00;100213.56;5096176;28;20043;-84
2023/01/13 04:05:21;;;;;;;11.40;1.02;;;;;;;7.17;100.00;100231.19;5114384;28;20027;-85
2023/01/13 04:08:11;;;;;;;8.65;0.73;;;;;;;7.19;100.00;100220.22;5114555;28;20038;-85
2023/01/13 04:10:49;;;;;;;7.30;0.70;;;;;;;7.18;100.00;100218.56;5096230;28;20478;-85
2023/01/13 04:13:19;;;;;;;3.65;0.60;;;;;;;7.06;100.00;100229.16;5096001;28;20035;-85
2023/01/13 04:15:47;;;;;;;4.88;0.82;;;;;;;7.08;100.00;100240.56;5095891;28;20039;-84
2023/01/13 04:18:27;;;;;;;5.53;0.63;;;;;;;7.05;100.00;100230.19;5095797;28;20027;-85
2023/01/13 04:20:56;;;;;;;6.15;0.82;;;;;;;6.77;100.00;100233.06;5095951;28;20043;-85
2023/01/13 04:23:23;;;;;;;4.68;0.85;;;;;;;6.75;100.00;100243.25;5095868;28;20035;-85
2023/01/13 04:25:50;;;;;;;7.32;1.17;;;;;;;6.76;100.00;100278.09;5096702;28;20061;-85
2023/01/13 04:28:16;;;;;;;10.05;1.10;;;;;;;6.84;100.00;100252.78;5095985;28;20024;-86
2023/01/13 04:30:42;;;;;;;7.47;0.80;;;;;;;6.86;100.00;100250.69;5113727;28;20024;-85
2023/01/13 04:33:08;;;;;;;9.25;1.13;;;;;;;6.88;100.00;100250.50;5095443;28;20023;-85
2023/01/13 04:35:37;;;;;;;10.27;1.43;;;;;;;6.90;100.00;100251.13;5113728;28;20023;-85
2023/01/13 04:38:08;;;;;;;8.98;0.93;;;;;;;6.85;100.00;100249.06;5095864;28;20020;-85
2023/01/13 04:40:34;;;;;;;12.43;1.27;;;;;;;6.82;100.00;100239.50;5095935;28;20349;-85
2023/01/13 04:42:59;;;;;;;15.03;1.47;;;;;;;6.91;100.00;100266.25;5095876;28;20110;-85
2023/01/13 04:45:25;;;;;;;15.45;1.20;;;;;;;6.81;100.00;100245.94;5095547;28;20289;-85
2023/01/13 04:47:50;;;;;;;18.47;2.33;;;;;;;6.82;100.00;100250.28;5078751;28;20119;-85
2023/01/13 04:50:22;;;;;;;12.93;1.70;;;;;;;6.85;100.00;100239.09;5095609;28;20088;-84
2023/01/13 04:52:49;;;;;;;11.90;1.75;;;;;;;6.89;100.00;100241.38;5113963;28;20106;-85
2023/01/13 04:55:16;;;;;;;17.40;1.58;;;;;;;6.88;100.00;100262.13;5099840;28;20118;-84
2023/01/13 04:57:42;;;;;;;11.18;1.33;;;;;;;6.83;100.00;100234.94;5117786;28;20057;-85
2023/01/13 05:00:10;;;;;;;15.27;1.50;;;;;;;6.91;100.00;100225.81;5099376;28;20027;-85
2023/01/13 05:02:37;;;;;;;11.00;1.53;;;;;;;6.83;100.00;100243.03;5099653;28;20041;-85
2023/01/13 05:05:03;;;;;;;17.67;1.73;;;;;;;6.84;100.00;100234.72;5099429;28;20053;-85
2023/01/13 05:07:32;;;;;;;20.00;1.73;;;;;;;6.81;100.00;100208.19;5082106;28;20529;-85
2023/01/13 05:09:58;;;;;;;13.75;1.60;;;;;;;6.77;100.00;100220.41;5099301;28;20484;-85
2023/01/13 05:17:56;;;;;;;10.52;1.60;;;;;;;6.73;100.00;100218.31;5117876;28;20035;-85
2023/01/13 05:20:25;;;;;;;17.07;1.63;;;;;;;6.67;100.00;100231.59;5098877;28;20028;-84
2023/01/13 05:25:39;;;;;;;13.05;1.77;;;;;;;6.64;100.00;100233.88;5101874;28;20050;-85
2023/01/13 05:28:06;;;;;;;20.37;1.80;;;;;;;6.62;100.00;100242.16;5117325;28;20419;-84
2023/01/13 05:30:36;;;;;;;8.73;0.82;;;;;;;6.62;100.00;100235.94;5098645;28;20531;-85
2023/01/13 05:33:01;;;;;;;11.90;1.83;;;;;;;6.63;100.00;100224.97;5098701;28;20122;-85
2023/01/13 05:35:29;;;;;;;8.97;1.23;;;;;;;6.63;100.00;100235.75;5081910;28;20027;-85
2023/01/13 05:37:55;;;;;;;18.23;1.98;;;;;;;6.55;100.00;100232.41;5098803;28;20475;-85
2023/01/13 05:43:24;;;;;;;10.80;1.50;;;;;;;6.54;100.00;100244.22;5117043;28;20085;-86
2023/01/13 05:45:58;;;;;;;13.38;1.75;;;;;;;6.61;100.00;100272.84;5098966;28;20102;-85
2023/01/13 05:48:33;;;;;;;13.75;1.65;;;;;;;6.64;100.00;100258.13;5098325;28;20036;-85
2023/01/13 05:51:01;;;;;;;12.75;1.67;;;;;;;6.64;100.00;100253.59;5116414;28;20110;-85
2023/01/13 05:53:27;;;;;;;10.40;1.30;;;;;;;6.64;100.00;100274.31;5116833;28;20027;-84
2023/01/13 05:55:53;;;;;;;16.17;1.98;;;;;;;6.54;100.00;100260.38;5098629;28;20437;-84
2023/01/13 05:58:20;;;;;;;13.63;1.67;;;;;;;6.52;100.00;100267.84;5098265;28;20027;-85
2023/01/13 06:00:46;;;;;;;13.35;1.85;;;;;;;6.62;100.00;100266.41;5097877;28;20027;-85
2023/01/13 06:03:12;;;;;;;8.63;1.50;;;;;;;6.60;100.00;100275.75;5098252;28;20036;-85
2023/01/13 06:05:40;;;;;;;14.10;2.72;;;;;;;6.61;100.00;100272.84;5116127;28;20475;-85
2023/01/13 06:08:07;;;;;;;10.77;1.27;;;;;;;6.52;100.00;100259.78;5097964;28;20028;-86
2023/01/13 06:10:34;;;;;;;14.03;1.10;;;;;;;6.49;100.00;100269.09;5097767;28;20118;-86
2023/01/13 06:13:03;;;;;;;13.55;1.98;;;;;;;6.45;100.00;100270.50;5115998;28;20106;-85
2023/01/13 06:15:28;;;;;;;11.50;1.40;;;;;;;6.44;100.00;100276.97;5097800;28;20088;-86
2023/01/13 06:17:56;;;;;;;15.20;1.67;;;;;;;6.48;100.00;100281.72;5080746;28;20511;-85
2023/01/13 06:20:22;;;;;;;14.82;1.55;;;;;;;6.44;100.00;100295.81;5098089;28;20053;-87
2023/01/13 06:22:53;;;;;;;9.45;1.00;;;;;;;6.32;100.00;100287.47;5097482;28;20030;-88
2023/01/13 06:25:27;;;;;;;13.93;1.60;;;;;;;6.31;100.00;100296.59;5116541;28;20024;-88
2023/01/13 06:27:55;;;;;;;10.00;1.33;;;;;;;6.32;100.00;100303.66;5116199;28;20055;-87
2023/01/13 06:33:13;;;;;;;16.42;1.45;;;;;;;6.32;100.00;100296.38;5116588;28;20093;-86
2023/01/13 06:35:48;;;;;;;14.25;1.45;;;;;;;6.32;100.00;100296.38;5097124;28;20059;-85
2023/01/13 06:38:16;;;;;;;13.50;1.45;;;;;;;6.35;100.00;100302.41;5115811;28;20026;-83
2023/01/13 06:40:45;;;;;;;16.83;2.05;;;;;;;6.42;100.00;100317.59;5097796;28;20032;-85
2023/01/13 06:43:16;;;;;;;11.55;1.38;;;;;;;6.46;100.00;100312.59;5097572;28;20031;-86
2023/01/13 06:45:47;;;;;;;16.75;3.33;;;;;;;6.56;100.00;100304.97;5097815;28;20421;-82
2023/01/13 06:48:13;;;;;;;14.18;1.27;;;;;;;6.60;100.00;100310.78;5115548;28;20027;-85
2023/01/13 06:50:41;;;;;;;11.63;1.20;;;;;;;6.72;100.00;100313.72;5096948;28;20027;-84
2023/01/13 06:53:07;;;;;;;16.42;1.80;;;;;;;6.73;100.00;100318.94;5115530;28;20027;-84
2023/01/13 06:55:40;;;;;;;14.13;1.52;;;;;;;6.79;100.00;100307.34;5097220;28;20035;-85
2023/01/13 06:58:06;;;;;;;11.32;1.30;;;;;;;6.82;100.00;100298.84;5097679;28;20023;-84
2023/01/13 07:00:36;;;;;;;12.77;1.27;;;;;;;6.81;100.00;100296.34;5097343;28;20031;-84
2023/01/13 07:03:06;;;;;;;9.18;1.20;;;;;;;6.79;100.00;100296.53;5096697;28;20032;-85
2023/01/13 07:05:31;;;;;;;23.23;1.58;;;;;;;6.81;100.00;100315.22;5097533;28;20452;-85
2023/01/13 07:07:57;;;;;;;10.40;1.13;;;;;;;6.88;100.00;100331.41;5079530;28;20035;-84
2023/01/13 07:10:22;;;;;;;13.70;2.60;;;;;;;6.87;100.00;100303.59;5114733;28;20036;-84
2023/01/13 07:15:33;;;;;;;16.15;2.13;;;;;;;6.86;100.00;100318.13;5084882;28;20630;-85
2023/01/13 07:17:59;;;;;;;12.90;1.48;;;;;;;6.82;99.84;100317.72;5114198;28;20027;-85
2023/01/13 07:20:24;;;;;;;10.82;1.63;;;;;;;6.67;100.00;100328.66;5096525;28;20032;-85
2023/01/13 07:22:53;;;;;;;10.87;1.60;;;;;;;6.72;100.00;100319.97;5062137;28;20134;-85
2023/01/13 07:25:22;;;;;;;15.00;2.05;;;;;;;6.64;100.00;100325.53;5095851;28;20032;-88
2023/01/13 07:27:49;;;;;;;8.13;1.00;;;;;;;6.64;100.00;100333.59;5096162;28;20031;-86
2023/01/13 07:30:15;;;;;;;13.80;1.05;;;;;;;6.58;100.00;100332.53;5062700;28;20487;-85
2023/01/13 07:32:41;;;;;;;14.33;1.80;;;;;;;6.55;100.00;100322.16;5096471;28;20043;-85
2023/01/13 07:35:16;;;;;;;12.27;1.27;;;;;;;6.61;99.92;100334.00;5096640;28;20481;-85
2023/01/13 07:37:41;;;;;;;16.20;1.58;;;;;;;6.62;98.74;100304.16;5114475;28;20468;-85
2023/01/13 07:40:08;;;;;;;20.50;2.13;;;;;;;6.58;98.61;100329.84;5096130;28;20062;-86
2023/01/13 07:45:21;;;;;;;18.52;1.90;;;;;;;6.62;98.54;100330.28;5114855;28;20082;-84
2023/01/13 07:47:51;;;;;;;12.37;1.63;;;;;;;6.65;98.27;100335.28;5096446;28;20039;-84
2023/01/13 07:50:16;;;;;;;13.10;1.60;;;;;;;6.62;98.67;100343.78;5114040;28;20475;-84
2023/01/13 07:52:44;;;;;;;16.83;2.57;;;;;;;6.55;99.51;100353.69;5079476;28;20054;-85
2023/01/13 07:55:09;;;;;;;21.63;2.72;;;;;;;6.61;98.70;100359.09;5113649;28;20035;-84
2023/01/13 07:57:35;;;;;;;12.60;1.57;;;;;;;6.56;99.67;100371.53;5079176;28;20040;-85
2023/01/13 08:00:02;;;;;;;17.80;1.87;;;;;;;6.59;99.69;100358.47;5078707;28;20050;-85
2023/01/13 08:02:28;;;;;;;17.10;2.15;;;;;;;6.54;100.00;100378.97;5095887;28;20027;-84
2023/01/13 08:04:53;;;;;;;14.57;1.65;;;;;;;6.50;100.00;100363.22;5113793;28;20039;-84
2023/01/13 08:07:18;;;;;;;12.82;1.60;;;;;;;6.48;100.00;100365.28;5079422;28;20131;-84
2023/01/13 08:09:46;;;;;;;23.47;2.03;;;;;;;6.40;100.00;100353.84;5079373;28;20077;-84
2023/01/13 08:14:55;;;;;;;15.10;2.22;;;;;;;6.40;100.00;100367.31;5114638;28;20047;-84
2023/01/13 08:17:21;;;;;;;10.55;1.38;;;;;;;6.41;100.00;100371.69;5095973;28;20023;-84
2023/01/13 08:19:47;;;;;;;16.90;2.40;;;;;;;6.40;100.00;100360.06;5079138;28;20028;-84
2023/01/13 08:22:12;;;;;;;26.20;2.50;;;;;;;6.43;100.00;100358.81;5079755;28;20028;-84
2023/01/13 08:24:37;;;;;;;19.45;2.67;;;;;;;6.49;100.00;100350.75;5079698;28;20036;-84
2023/01/13 08:27:03;;;;;;;16.23;2.17;;;;;;;6.45;100.00;100349.53;5095573;28;20050;-84
2023/01/13 08:29:38;;;;;;;15.90;1.60;;;;;;;6.46;100.00;100358.44;5098608;28;20123;-84
2023/01/13 08:32:04;;;;;;;16.37;2.47;;;;;;;6.43;100.00;100364.22;5118544;28;20039;-84
2023/01/13 08:34:30;;;;;;;15.43;2.75;;;;;;;6.42;100.00;100352.63;5099770;28;20089;-84
2023/01/13 08:36:55;;;;;;;17.50;2.15;;;;;;;6.43;100.00;100367.72;5082876;28;20031;-84
2023/01/13 08:39:23;;;;;;;25.55;2.78;;;;;;;6.53;100.00;100358.47;5118215;28;20027;-84
2023/01/13 08:41:57;;;;;;;24.27;2.38;;;;;;;6.54;100.00;100360.97;5100539;28;20019;-84
2023/01/13 08:44:32;;;;;;;14.88;1.90;;;;;;;6.61;100.00;100361.78;5088097;28;20052;-84
2023/01/13 08:46:58;;;;;;;19.45;2.42;;;;;;;6.77;100.00;100346.31;5079262;28;20030;-84
2023/01/13 08:49:26;;;;;;;13.38;2.50;;;;;;;6.94;100.00;100347.63;5079054;28;20115;-84
2023/01/13 08:51:55;;;;;;;14.25;1.23;;;;;;;6.97;99.90;100378.75;5079293;28;20035;-85
2023/01/13 08:54:20;;;;;;;16.40;1.87;;;;;;;7.08;99.30;100361.13;5079237;28;20057;-84
2023/01/13 08:56:46;;;;;;;20.02;2.30;;;;;;;7.12;98.77;100389.38;5062261;28;20020;-84
2023/01/13 08:59:17;;;;;;;19.00;3.40;;;;;;;7.26;98.08;100387.50;5062442;28;20035;-84
2023/01/13 09:01:44;;;;;;;18.42;1.83;;;;;;;7.23;97.49;100390.63;5079134;28;20077;-84
2023/01/13 09:04:22;;;;;;;13.80;2.53;;;;;;;7.34;97.05;100360.34;5079053;28;20053;-84
2023/01/13 09:06:48;;;;;;;23.27;2.63;;;;;;;7.27;96.16;100384.59;5079018;28;20028;-85
2023/01/13 09:09:13;;;;;;;18.97;2.30;;;;;;;7.27;96.33;100398.09;5078444;28;20422;-84
2023/01/13 09:14:35;;;;;;;16.67;2.37;;;;;;;7.30;95.59;100368.00;5097423;28;20152;-84
2023/01/13 09:17:03;;;;;;;18.60;2.80;;;;;;;7.35;95.06;100375.47;5079551;28;20107;-84
2023/01/13 09:19:29;;;;;;;19.85;2.25;;;;;;;7.35;94.05;100373.63;5078109;28;20483;-84
2023/01/13 09:21:56;;;;;;;19.05;2.40;;;;;;;7.42;94.42;100391.69;5078288;28;20043;-85
2023/01/13 09:24:23;;;;;;;12.63;2.20;;;;;;;7.50;93.64;100392.34;5078459;28;20028;-85
2023/01/13 09:26:51;;;;;;;18.17;2.60;;;;;;;7.55;93.50;100405.22;5096631;28;20028;-85
2023/01/13 09:29:17;;;;;;;14.35;2.30;;;;;;;7.67;92.78;100397.31;5078122;28;20040;-84
2023/01/13 09:31:43;;;;;;;17.52;2.45;;;;;;;7.72;92.04;100405.63;5077708;28;20369;-84
2023/01/13 09:37:02;;;;;;;26.17;2.08;;;;;;;7.76;92.65;100419.56;5096564;28;20035;-84
2023/01/13 09:39:28;;;;;;;17.85;2.55;;;;;;;7.83;92.33;100405.00;5077724;28;20122;-84
2023/01/13 09:44:47;;;;;;;24.38;2.35;;;;;;;7.67;93.28;100429.72;5110037;28;20108;-84
2023/01/13 09:47:29;;;;;;;19.08;2.85;;;;;;;7.67;92.67;100418.94;5098309;28;20035;-85
2023/01/13 09:50:01;;;;;;;23.83;2.40;;;;;;;7.65;93.05;100421.00;5099391;28;20045;-84
2023/01/13 09:52:29;;;;;;;29.73;3.40;;;;;;;7.64;92.43;100436.38;5098324;28;20035;-84
2023/01/13 09:55:06;;;;;;;17.83;2.73;;;;;;;7.69;92.98;100477.09;5082182;28;20119;-84
2023/01/13 09:57:35;;;;;;;16.98;2.25;;;;;;;7.61;93.29;100433.25;5098259;28;20122;-84
2023/01/13 10:00:01;;;;;;;26.08;2.53;;;;;;;7.70;92.35;100470.63;5098288;28;20023;-84
2023/01/13 10:02:52;;;;;;;20.27;2.67;;;;;;;7.77;93.02;100457.16;5097875;28;20077;-83
2023/01/13 10:05:39;;;;;;;18.95;2.78;;;;;;;7.73;92.83;100428.91;5116505;28;20487;-84
2023/01/13 10:08:12;;;;;;;17.98;3.15;;;;;;;7.65;92.87;100437.22;5098599;28;20494;-83
2023/01/13 10:10:41;;;;;;;21.35;2.92;;;;;;;7.63;93.71;100429.31;5098329;28;20094;-84
2023/01/13 10:13:25;;;;;;;24.02;3.55;;;;;;;7.86;92.71;100445.09;5098292;28;20035;-89
2023/01/13 10:15:54;;;;;;;23.40;3.03;;;;;;;8.00;91.22;100434.28;5098208;28;20036;-84
2023/01/13 10:18:49;;;;;;;20.50;2.55;;;;;;;8.07;92.04;100443.22;5098094;28;20031;-84
2023/01/13 10:21:38;;;;;;;22.77;3.60;;;;;;;8.29;90.43;100446.53;5116772;28;20028;-84
2023/01/13 10:24:15;;;;;;;14.55;2.17;;;;;;;8.32;90.61;100456.94;5098747;28;20478;-84
2023/01/13 10:26:57;;;;;;;21.73;2.80;;;;;;;8.06;92.75;100469.44;5115655;28;20077;-84
2023/01/13 10:29:26;;;;;;;16.60;2.70;;;;;;;7.70;97.67;100484.13;5097817;28;20383;-83
2023/01/13 10:31:53;;;;;;;25.23;3.22;;;;;;;7.16;100.00;100480.50;5097495;28;20028;-83
2023/01/13 10:34:19;;;;;;;18.38;3.17;;;;;;;6.90;100.00;100478.50;5080802;28;20048;-83
2023/01/13 10:37:05;;;;;;;19.10;2.67;;;;;;;6.64;100.00;100481.88;5097563;28;20051;-83
2023/01/13 10:39:45;;;;;;;22.48;3.05;;;;;;;6.40;100.00;100504.75;5097586;28;20027;-83
2023/01/13 10:42:18;;;;;;;24.50;2.92;;;;;;;6.23;100.00;100502.34;5097518;28;20028;-83
2023/01/13 10:44:47;;;;;;;23.85;3.35;;;;;;;6.11;100.00;100520.06;5097358;28;20047;-83
2023/01/13 10:47:23;;;;;;;31.58;3.97;;;;;;;5.99;100.00;100519.75;5115687;28;20032;-82
2023/01/13 10:50:12;;;;;;;22.98;4.15;;;;;;;6.02;100.00;100545.47;5096914;28;20028;-82
2023/01/13 10:53:02;;;;;;;26.20;2.90;;;;;;;5.96;100.00;100529.03;5096959;28;20062;-82
2023/01/13 10:55:35;;;;;;;23.27;3.70;;;;;;;5.89;100.00;100513.81;5097032;28;20084;-82
2023/01/13 10:58:21;;;;;;;27.95;2.80;;;;;;;5.93;100.00;100499.75;5096475;28;20477;-82
2023/01/13 11:00:48;;;;;;;27.95;4.35;;;;;;;5.98;100.00;100518.09;5114601;28;20073;-83
2023/01/13 11:03:22;;;;;;;25.20;3.00;;;;;;;5.94;100.00;100506.00;5080219;28;20035;-83
2023/01/13 11:05:56;;;;;;;23.65;2.72;;;;;;;5.89;100.00;100506.59;5096776;28;20035;-83
2023/01/13 11:08:28;;;;;;;21.45;3.08;;;;;;;5.95;100.00;100519.28;5096624;28;20020;-83
2023/01/13 11:10:56;;;;;;;23.80;2.60;;;;;;;5.98;100.00;100512.72;5097111;28;20173;-83
2023/01/13 11:13:34;;;;;;;29.52;3.50;;;;;;;5.94;100.00;100539.13;5115021;28;20467;-83
2023/01/13 11:16:11;;;;;;;18.50;2.78;;;;;;;5.96;100.00;100507.50;5096839;28;20470;-83
2023/01/13 11:19:00;;;;;;;24.02;3.20;;;;;;;5.96;100.00;100517.41;5096566;28;20515;-84
2023/01/13 11:21:52;;;;;;;23.00;2.65;;;;;;;5.96;100.00;100510.19;5096919;28;20483;-84
2023/01/13 11:24:38;;;;;;;17.95;2.30;;;;;;;6.23;100.00;100532.00;5096095;28;20045;-84
2023/01/13 11:27:27;;;;;;;23.05;2.40;;;;;;;6.19;100.00;100511.03;5096590;28;20024;-84
2023/01/13 11:30:00;;;;;;;17.05;2.28;;;;;;;6.40;100.00;100531.69;5085513;28;20050;-84
2023/01/13 11:32:29;;;;;;;21.77;2.65;;;;;;;6.47;100.00;100529.88;5097022;28;20398;-84
2023/01/13 11:35:00;;;;;;;18.05;2.17;;;;;;;6.71;100.00;100514.28;5096016;28;20024;-84
2023/01/13 11:37:40;;;;;;;21.40;2.88;;;;;;;6.82;100.00;100529.88;5096158;28;20032;-85
2023/01/13 11:40:20;;;;;;;21.90;2.38;;;;;;;6.88;100.00;100529.13;5114551;28;20038;-84
2023/01/13 11:43:02;;;;;;;18.35;2.83;;;;;;;6.94;100.00;100522.06;5096350;28;20047;-87
2023/01/13 11:45:48;;;;;;;23.27;3.60;;;;;;;6.97;100.00;100537.88;5076110;28;20082;-84
2023/01/13 11:48:21;;;;;;;23.33;2.97;;;;;;;7.06;100.00;100555.56;5075917;28;20048;-83
2023/01/13 11:50:53;;;;;;;14.82;2.13;;;;;;;7.06;100.00;100546.63;5075834;28;20104;-83
2023/01/13 11:53:45;;;;;;;16.45;2.65;;;;;;;7.03;100.00;100542.47;5075938;28;20036;-83
2023/01/13 11:56:23;;;;;;;28.60;3.28;;;;;;;7.07;100.00;100562.63;5074717;28;20042;-84
2023/01/13 11:58:54;;;;;;;17.67;2.85;;;;;;;7.11;100.00;100533.38;5075816;28;20036;-84
2023/01/13 12:01:44;;;;;;;14.05;2.20;;;;;;;7.17;100.00;100533.41;5075918;28;20031;-83
2023/01/13 12:04:35;;;;;;;14.23;2.67;;;;;;;7.30;100.00;100556.91;5075872;28;20050;-83
2023/01/13 12:07:15;;;;;;;21.13;1.77;;;;;;;7.47;99.36;100572.75;5093860;28;20020;-83
2023/01/13 12:09:46;;;;;;;16.63;1.90;;;;;;;7.51;100.00;100561.38;5093810;28;20046;-83
2023/01/13 12:12:22;;;;;;;19.55;2.40;;;;;;;7.61;100.00;100604.19;5093682;28;20027;-84
2023/01/13 12:15:25;;;;;;;19.27;2.53;;;;;;;7.67;97.21;100562.88;5075495;28;20028;-83
2023/01/13 12:18:15;;;;;;;18.27;2.47;;;;;;;7.71;96.55;100558.72;5075163;28;20028;-83
2023/01/13 12:21:08;;;;;;;18.25;2.58;;;;;;;7.76;95.92;100571.63;5075577;28;20110;-83
2023/01/13 12:23:49;;;;;;;10.70;1.48;;;;;;;7.82;95.60;100578.06;5075493;28;20032;-82